This is the latest recevied weather packets stored in our database for station/object DM4XI-13. If no packets are shown the sender has not sent any weather packets the latest 10 day(s).
| Time | Temp. | Humidity | Pressure | Rain* | Wind** | Luminosity | Snow |
|---|---|---|---|---|---|---|---|
| 1777815192 | 27.78° C | 25% | 1010.5 hPa | 0 mm | 0.89 m/s, 192° | 511 W/m² | - |
| 1777815130 | 27.78° C | 23% | 1010.7 hPa | 0 mm | 0.89 m/s, 184° | 481 W/m² | - |
| 1777815070 | 27.22° C | 24% | 1010.7 hPa | 0 mm | 0.45 m/s, 175° | 491 W/m² | - |
| 1777815009 | 27.22° C | 25% | 1010.7 hPa | 0 mm | 0.45 m/s, 185° | 429 W/m² | - |
| 1777814948 | 27.22° C | 24% | 1010.6 hPa | 0 mm | 0.45 m/s, 234° | 418 W/m² | - |
| 1777814886 | 27.22° C | 25% | 1010.7 hPa | 0 mm | 0.89 m/s, 175° | 369 W/m² | - |
| 1777814826 | 27.22° C | 26% | 1010.7 hPa | 0 mm | 0 m/s | 321 W/m² | - |
| 1777814765 | 27.78° C | 24% | 1010.7 hPa | 0 mm | 2.24 m/s, 142° | 360 W/m² | - |
| 1777814703 | 27.78° C | 23% | 1010.8 hPa | 0 mm | 0 m/s | 403 W/m² | - |
| 1777814642 | 27.78° C | 24% | 1010.9 hPa | 0 mm | 0.45 m/s, 161° | 475 W/m² | - |
| 1777814581 | 27.78° C | 25% | 1010.8 hPa | 0 mm | 0.45 m/s, 161° | 517 W/m² | - |
| 1777814521 | 27.78° C | 24% | 1010.7 hPa | 0 mm | 0.45 m/s, 143° | 524 W/m² | - |
| 1777814459 | 27.78° C | 23% | 1010.9 hPa | 0 mm | 0.89 m/s, 112° | 533 W/m² | - |
| 1777814399 | 27.78° C | 25% | 1010.8 hPa | 0 mm | 0.89 m/s, 170° | 519 W/m² | - |
| 1777814337 | 27.22° C | 25% | 1010.9 hPa | 0 mm | 0.89 m/s, 155° | 457 W/m² | - |
| 1777814276 | 27.22° C | 25% | 1011 hPa | 0 mm | 0.45 m/s, 169° | 477 W/m² | - |
| 1777814215 | 26.67° C | 24% | 1010.9 hPa | 0 mm | 0.45 m/s, 178° | 458 W/m² | - |
| 1777814154 | 26.67° C | 24% | 1010.9 hPa | 0 mm | 0.89 m/s, 246° | 459 W/m² | - |
| 1777814093 | 26.67° C | 25% | 1010.9 hPa | 0 mm | 0.45 m/s, 177° | 481 W/m² | - |
| 1777814033 | 26.67° C | 24% | 1011 hPa | 0 mm | 0.89 m/s, 285° | 498 W/m² | - |
| 1777813972 | 26.67° C | 24% | 1011 hPa | 0 mm | 0.89 m/s, 316° | 523 W/m² | - |
| 1777813910 | 27.22° C | 24% | 1011.1 hPa | 0 mm | 1.34 m/s, 188° | 523 W/m² | - |
| 1777813849 | 27.22° C | 24% | 1010.8 hPa | 0 mm | 0.89 m/s, 157° | 519 W/m² | - |
| 1777813789 | 26.67° C | 25% | 1011.3 hPa | 0 mm | 0.45 m/s, 186° | 543 W/m² | - |
| 1777813666 | 26.67° C | 28% | 1011.2 hPa | 0 mm | 0.45 m/s, 188° | 531 W/m² | - |
* Rain latest hour (hover to see other rain measurements)
** Current wind speed in m/s (hover to see current wind gust speed)